Time;durP1;ratioP1;P1;durP2;ratioP2;P2;SDS_P1;SDS_P2;PMS_P1;PMS_P2;Temp;Humidity;BMP_temperature;BMP_pressure;BME280_temperature;BME280_humidity;BME280_pressure;Samples;Min_cycle;Max_cycle;Signal;HPM_P1;HPM_P2
2022/01/22 00:01:01;;;;;;;;;;;;;;;0.68;59.21;100254.69;4427486;32;20278;-91
2022/01/22 00:03:26;;;;;;;;;;;;;;;0.86;59.22;100242.16;4426997;32;20153;-92
2022/01/22 00:05:52;;;;;;;;;;;;;;;0.71;59.21;100229.09;4426518;32;20015;-91
2022/01/22 00:08:17;;;;;;;;;;;;;;;0.73;59.21;100233.44;4426686;32;19989;-89
2022/01/22 00:10:44;;;;;;;;;;;;;;;0.67;59.21;100238.44;4426675;32;20043;-91
2022/01/22 00:15:44;;;;;;;;;;;;;;;0.68;59.21;100237.59;4441239;32;20036;-92
2022/01/22 00:18:09;;;;;;;;;;;;;;;0.58;59.20;100235.75;4439854;32;20518;-91
2022/01/22 00:20:36;;;;;;;;;;;;;;;0.76;59.22;100235.19;4440021;32;20005;-91
2022/01/22 00:23:02;;;;;;;;;;;;;;;0.59;59.21;100232.34;4430841;32;19997;-93
2022/01/22 00:25:27;;;;;;;;;;;;;;;0.52;59.20;100238.22;4428492;32;20310;-95
2022/01/22 00:27:52;;;;;;;;;;;;;;;0.60;59.21;100234.06;4428460;32;20008;-94
2022/01/22 00:30:19;;;;;;;;;;;;;;;0.60;59.21;100234.94;4428680;32;20012;-94
2022/01/22 00:32:44;;;;;;;;;;;;;;;0.67;59.21;100235.03;4429198;32;20015;-95
2022/01/22 00:35:10;;;;;;;;;;;;;;;0.78;59.22;100238.62;4428144;32;19982;-93
2022/01/22 00:37:36;;;;;;;;;;;;;;;0.86;59.22;100235.31;4427967;32;20093;-92
2022/01/22 00:40:03;;;;;;;;;;;;;;;0.92;59.22;100217.47;4427807;32;20001;-94
2022/01/22 00:42:31;;;;;;;;;;;;;;;0.99;59.23;100220.13;4440872;32;19989;-92
2022/01/22 00:44:56;;;;;;;;;;;;;;;1.08;59.23;100210.00;4427591;32;19974;-93
2022/01/22 00:47:21;;;;;;;;;;;;;;;1.05;59.24;100217.66;4427428;32;19993;-93
2022/01/22 00:49:46;;;;;;;;;;;;;;;0.95;59.22;100210.66;4427697;32;20004;-95
2022/01/22 00:52:12;;;;;;;;;;;;;;;1.03;59.24;100209.94;4429752;32;20016;-93
2022/01/22 00:54:38;;;;;;;;;;;;;;;1.02;59.23;100217.63;4427385;32;20000;-95
2022/01/22 00:57:04;;;;;;;;;;;;;;;1.19;59.24;100211.03;4428281;32;20026;-94
2022/01/22 00:59:29;;;;;;;;;;;;;;;1.11;59.24;100210.03;4429878;32;20025;-94
2022/01/22 01:01:54;;;;;;;;;;;;;;;1.13;59.24;100208.34;4429866;32;20372;-94
2022/01/22 01:04:19;;;;;;;;;;;;;;;1.20;59.24;100200.78;4429819;32;20012;-94
2022/01/22 01:06:45;;;;;;;;;;;;;;;1.27;59.25;100195.72;4443069;32;20084;-94
2022/01/22 01:09:10;;;;;;;;;;;;;;;1.26;59.25;100183.75;4429709;32;20038;-94
2022/01/22 01:11:41;;;;;;;;;;;;;;;1.20;59.24;100189.66;4429373;32;20046;-93
2022/01/22 01:14:09;;;;;;;;;;;;;;;1.32;59.24;100181.25;4432349;32;19985;-92
2022/01/22 01:35:16;;;;;;;;;;;;;;;1.33;59.26;100112.03;4444158;32;20000;-93
2022/01/22 01:37:41;;;;;;;;;;;;;;;1.36;59.26;100106.94;4432062;32;19981;-96
2022/01/22 01:40:08;;;;;;;;;;;;;;;1.35;59.25;100105.19;4441016;32;19953;-95
2022/01/22 01:43:03;;;;;;;;;;;;;;;1.27;59.25;100101.72;4443814;32;19965;-92
2022/01/22 01:45:29;;;;;;;;;;;;;;;1.43;59.26;100097.63;4432983;32;19986;-94
2022/01/22 01:47:55;;;;;;;;;;;;;;;1.55;59.27;100087.47;4430767;32;19985;-92
2022/01/22 01:50:20;;;;;;;;;;;;;;;1.47;59.25;100083.97;4428453;32;20356;-92
2022/01/22 01:52:51;;;;;;;;;;;;;;;1.66;59.27;100082.44;4428352;32;20044;-90
2022/01/22 01:55:32;;;;;;;;;;;;;;;1.60;59.26;100065.25;4428896;32;19973;-90
2022/01/22 01:57:58;;;;;;;;;;;;;;;1.68;59.27;100063.66;4430559;32;19985;-92
2022/01/22 02:00:23;;;;;;;;;;;;;;;1.60;59.26;100060.13;4428666;32;20670;-93
2022/01/22 02:02:48;;;;;;;;;;;;;;;1.64;59.27;100053.31;4428619;32;20031;-92
2022/01/22 02:05:14;;;;;;;;;;;;;;;1.67;59.27;100043.97;4428576;32;19977;-91
2022/01/22 02:07:41;;;;;;;;;;;;;;;1.67;59.27;100025.16;4428200;32;20475;-91
2022/01/22 02:10:08;;;;;;;;;;;;;;;1.52;59.26;100024.16;4430074;32;20612;-90
2022/01/22 02:23:45;;;;;;;;;;;;;;;1.62;59.26;100007.13;4442729;32;20011;-91
2022/01/22 02:26:03;;;;;;;;;;;;;;;1.51;59.26;100009.63;4441839;32;19981;-91
2022/01/22 02:28:28;;;;;;;;;;;;;;;1.40;59.26;100006.06;4428782;32;20022;-92
2022/01/22 02:31:00;;;;;;;;;;;;;;;1.35;59.25;100007.75;4428269;32;19992;-90
2022/01/22 02:33:42;;;;;;;;;;;;;;;1.52;59.26;100006.19;4441738;32;19989;-90
2022/01/22 02:36:33;;;;;;;;;;;;;;;1.53;59.26;100000.22;4429673;32;19981;-92
2022/01/22 02:39:12;;;;;;;;;;;;;;;1.37;59.25;99995.78;4442156;32;19999;-89
2022/01/22 02:41:41;;;;;;;;;;;;;;;1.18;59.25;99987.09;4429448;32;19993;-89
2022/01/22 02:44:08;;;;;;;;;;;;;;;1.32;59.24;99992.34;4427848;32;20007;-90
2022/01/22 02:46:38;;;;;;;;;;;;;;;1.36;59.25;99999.22;4428190;32;20390;-90
2022/01/22 02:49:03;;;;;;;;;;;;;;;1.38;59.25;99988.97;4441239;32;20023;-88
2022/01/22 02:51:28;;;;;;;;;;;;;;;1.42;59.26;99983.00;4429950;32;20265;-89
2022/01/22 02:53:55;;;;;;;;;;;;;;;1.39;59.25;99991.53;4427763;32;19981;-91
2022/01/22 02:56:22;;;;;;;;;;;;;;;1.27;59.25;100000.84;4428284;32;19990;-91
2022/01/22 02:58:47;;;;;;;;;;;;;;;1.28;59.25;99998.28;4428577;32;19981;-89
2022/01/22 03:01:16;;;;;;;;;;;;;;;1.22;59.24;99996.53;4441315;32;20337;-88
2022/01/22 03:03:41;;;;;;;;;;;;;;;1.34;59.25;99989.78;4428931;32;20000;-90
2022/01/22 03:06:06;;;;;;;;;;;;;;;1.51;59.26;99980.53;4429758;32;19991;-94
2022/01/22 03:08:32;;;;;;;;;;;;;;;1.71;59.27;99975.56;4430611;32;19981;-94
2022/01/22 03:11:00;;;;;;;;;;;;;;;1.45;59.25;99962.53;4430737;32;20091;-93
2022/01/22 03:19:01;;;;;;;;;;;;;;;1.54;59.26;99967.72;4444277;32;19981;-91
2022/01/22 03:21:35;;;;;;;;;;;;;;;1.78;59.28;99961.91;4438323;32;19957;-92
2022/01/22 03:29:40;;;;;;;;;;;;;;;1.96;59.28;99953.47;4444956;32;20619;-94
2022/01/22 03:32:06;;;;;;;;;;;;;;;1.84;59.28;99962.81;4431636;32;20004;-94
2022/01/22 03:34:37;;;;;;;;;;;;;;;2.01;59.29;99955.22;4430487;32;20619;-93
2022/01/22 03:37:03;;;;;;;;;;;;;;;2.09;59.29;99950.13;4430587;32;19950;-92
2022/01/22 03:39:28;;;;;;;;;;;;;;;2.21;59.29;99944.19;4429984;32;20038;-92
2022/01/22 03:41:54;;;;;;;;;;;;;;;2.29;59.31;99940.81;4429383;32;20024;-90
2022/01/22 03:44:19;;;;;;;;;;;;;;;2.21;59.29;99947.63;4429127;32;20037;-92
2022/01/22 03:46:45;;;;;;;;;;;;;;;2.32;59.31;99943.38;4429215;32;19977;-92
2022/01/22 03:49:10;;;;;;;;;;;;;;;2.34;59.30;99935.69;4428941;32;19990;-90
2022/01/22 03:51:36;;;;;;;;;;;;;;;2.45;59.32;99919.47;4430371;32;20093;-94
2022/01/22 03:54:01;;;;;;;;;;;;;;;2.46;59.31;99912.63;4429662;32;19989;-92
2022/01/22 03:56:27;;;;;;;;;;;;;;;2.57;59.32;99913.50;4442756;32;20231;-92
2022/01/22 03:58:52;;;;;;;;;;;;;;;2.52;59.32;99916.91;4430057;32;19999;-93
2022/01/22 04:04:12;;;;;;;;;;;;;;;2.03;59.29;99924.41;4444196;32;20033;-91
2022/01/22 04:07:08;;;;;;;;;;;;;;;1.70;59.27;99930.22;4431191;32;20029;-91
2022/01/22 04:09:25;;;;;;;;;;;;;;;1.61;59.26;99925.00;4444555;32;19977;-91
2022/01/22 04:11:52;;;;;;;;;;;;;;;1.54;59.26;99926.69;4429806;32;20004;-91
2022/01/22 04:14:25;;;;;;;;;;;;;;;1.47;59.25;99922.38;4442848;32;19997;-93
2022/01/22 04:24:55;;;;;;;;;;;;;;;1.87;59.28;99918.34;4438741;32;20410;-91
2022/01/22 04:27:24;;;;;;;;;;;;;;;1.84;59.28;99920.88;4429697;32;19977;-93
2022/01/22 04:29:51;;;;;;;;;;;;;;;1.65;59.26;99919.91;4427560;32;19964;-96
2022/01/22 04:32:16;;;;;;;;;;;;;;;1.72;59.27;99916.56;4427068;32;20013;-96
2022/01/22 04:34:42;;;;;;;;;;;;;;;1.82;59.27;99917.44;4426618;32;20326;-96
2022/01/22 04:37:07;;;;;;;;;;;;;;;2.07;59.29;99909.03;4426529;32;20001;-94
2022/01/22 04:39:37;;;;;;;;;;;;;;;2.11;59.29;99907.34;4429823;32;20018;-94
2022/01/22 04:42:03;;;;;;;;;;;;;;;1.97;59.28;99901.28;4426774;32;20020;-95
2022/01/22 04:44:33;;;;;;;;;;;;;;;1.91;59.28;99899.56;4426282;32;20017;-93
2022/01/22 04:55:05;;;;;;;;;;;;;;;1.93;59.29;99890.16;4401163;32;19975;-95
2022/01/22 04:57:33;;;;;;;;;;;;;;;1.97;59.28;99893.59;4430022;32;20018;-93
2022/01/22 04:59:58;;;;;;;;;;;;;;;1.96;59.28;99890.16;4428086;32;20155;-90
2022/01/22 05:02:35;;;;;;;;;;;;;;;1.88;59.28;99889.25;4434695;32;20028;-95
2022/01/22 05:05:00;;;;;;;;;;;;;;;2.13;59.30;99896.25;4443710;32;20008;-95
2022/01/22 05:17:57;;;;;;;;;;;;;;;2.31;59.31;99881.72;5282471;26;20476;-96
2022/01/22 05:20:54;;;;;;;;;;;;;;;2.46;59.32;99886.94;4484043;32;19983;-96
2022/01/22 05:23:32;;;;;;;;;;;;;;;2.38;59.31;99888.63;4555891;26;19971;-95
2022/01/22 05:33:16;;;;;;;;;;;;;;;2.45;59.32;99893.78;4430815;32;19968;-93
2022/01/22 05:38:05;;;;;;;;;;;;;;;2.50;59.31;99892.94;4407743;32;20008;-95
2022/01/22 05:40:30;;;;;;;;;;;;;;;2.49;59.31;99886.06;4412979;32;19986;-94
2022/01/22 05:42:55;;;;;;;;;;;;;;;2.47;59.31;99884.38;4439554;32;20052;-96
2022/01/22 05:45:21;;;;;;;;;;;;;;;2.56;59.32;99877.53;4442839;32;20024;-93
2022/01/22 05:47:46;;;;;;;;;;;;;;;2.46;59.31;99871.53;4440652;32;24177;-95
2022/01/22 05:50:51;;;;;;;;;;;;;;;2.27;59.30;99872.31;4448412;32;19977;-94
2022/01/22 05:53:44;;;;;;;;;;;;;;;2.28;59.30;99876.59;4727005;26;19957;-96
2022/01/22 06:01:19;;;;;;;;;;;;;;;2.18;59.30;99880.84;4475438;32;19959;-91
2022/01/22 06:03:44;;;;;;;;;;;;;;;2.32;59.31;99881.75;4460944;32;20033;-91
2022/01/22 06:06:10;;;;;;;;;;;;;;;2.34;59.30;99887.72;4460213;32;20592;-91
2022/01/22 06:08:41;;;;;;;;;;;;;;;2.17;59.30;99891.12;4459843;32;20707;-91
2022/01/22 06:11:11;;;;;;;;;;;;;;;2.42;59.32;99896.34;4460839;32;19961;-91
2022/01/22 06:13:46;;;;;;;;;;;;;;;2.49;59.31;99896.34;4461454;32;19985;-90
2022/01/22 06:16:12;;;;;;;;;;;;;;;2.62;59.32;99896.41;4475129;32;19995;-90
2022/01/22 06:18:38;;;;;;;;;;;;;;;2.44;59.32;99893.78;4461790;32;20000;-93
2022/01/22 06:21:03;;;;;;;;;;;;;;;2.58;59.33;99886.94;4462768;32;19999;-90
2022/01/22 06:23:29;;;;;;;;;;;;;;;2.45;59.32;99898.91;4459283;32;20227;-89
2022/01/22 06:25:58;;;;;;;;;;;;;;;2.55;59.32;99896.38;4458331;32;30233;-90
2022/01/22 06:28:23;;;;;;;;;;;;;;;2.44;59.32;99902.34;4459645;32;20014;-89
2022/01/22 06:30:48;;;;;;;;;;;;;;;2.38;59.32;99891.19;4458347;32;27545;-89
2022/01/22 06:33:13;;;;;;;;;;;;;;;2.41;59.31;99899.78;4458611;32;19976;-89
2022/01/22 06:35:39;;;;;;;;;;;;;;;2.41;59.31;99907.47;4449762;32;27135;-89
2022/01/22 06:38:06;;;;;;;;;;;;;;;2.26;59.30;99901.41;4442047;32;24762;-89
2022/01/22 06:42:57;;;;;;;;;;;;;;;2.36;59.31;99918.56;4456348;32;20286;-90
2022/01/22 06:45:22;;;;;;;;;;;;;;;2.32;59.31;99920.25;4442724;32;20330;-90
2022/01/22 06:47:47;;;;;;;;;;;;;;;2.15;59.30;99925.34;4443176;32;20359;-91
2022/01/22 06:50:12;;;;;;;;;;;;;;;2.28;59.30;99920.25;4442796;32;26034;-90
2022/01/22 06:52:39;;;;;;;;;;;;;;;2.18;59.30;99916.81;4443470;32;20025;-90
2022/01/22 06:55:05;;;;;;;;;;;;;;;2.18;59.30;99910.81;4443340;32;19989;-90
2022/01/22 06:57:30;;;;;;;;;;;;;;;2.15;59.30;99914.22;4445312;32;19992;-90
2022/01/22 06:59:56;;;;;;;;;;;;;;;2.19;59.30;99915.94;4456640;32;20289;-90
2022/01/22 07:02:23;;;;;;;;;;;;;;;2.11;59.29;99909.91;4458337;32;19988;-90
2022/01/22 07:04:48;;;;;;;;;;;;;;;2.15;59.30;99909.09;4470341;32;20273;-90
2022/01/22 07:07:13;;;;;;;;;;;;;;;2.10;59.29;99905.62;4456519;32;19993;-91
2022/01/22 07:09:38;;;;;;;;;;;;;;;2.07;59.30;99913.31;4456684;32;19993;-93
2022/01/22 07:12:04;;;;;;;;;;;;;;;2.12;59.29;99920.19;4444901;32;20020;-92
2022/01/22 07:14:29;;;;;;;;;;;;;;;2.25;59.30;99926.25;4445043;32;20031;-91
2022/01/22 07:16:55;;;;;;;;;;;;;;;2.33;59.31;99939.97;4458094;32;20008;-92
2022/01/22 07:19:21;;;;;;;;;;;;;;;2.51;59.33;99946.88;4446581;32;33442;-94
2022/01/22 07:22:06;;;;;;;;;;;;;;;2.71;59.33;99952.09;4445349;32;20032;-93
2022/01/22 07:24:37;;;;;;;;;;;;;;;2.90;59.34;99950.44;4462521;32;19977;-92
2022/01/22 07:27:03;;;;;;;;;;;;;;;2.96;59.35;99953.88;4448834;32;19993;-93
2022/01/22 07:29:28;;;;;;;;;;;;;;;2.72;59.33;99962.37;4466058;32;19980;-93
2022/01/22 07:31:53;;;;;;;;;;;;;;;2.86;59.33;99971.88;4466506;32;19995;-93
2022/01/22 07:34:19;;;;;;;;;;;;;;;3.00;59.35;99968.44;4459573;32;19960;-92
2022/01/22 07:36:44;;;;;;;;;;;;;;;2.96;59.35;99968.44;4469461;32;23035;-92
2022/01/22 07:39:09;;;;;;;;;;;;;;;3.02;59.35;99966.72;4456493;32;20027;-91
2022/01/22 07:41:34;;;;;;;;;;;;;;;3.03;59.35;99962.44;4443353;32;20021;-92
2022/01/22 07:44:00;;;;;;;;;;;;;;;3.14;59.36;99959.91;4444284;32;20016;-93
2022/01/22 07:46:25;;;;;;;;;;;;;;;3.27;59.36;99956.47;4443978;32;20292;-91
2022/01/22 07:48:50;;;;;;;;;;;;;;;3.27;59.36;99957.34;4442992;32;19996;-89
2022/01/22 07:51:16;;;;;;;;;;;;;;;3.34;59.37;99955.66;4442575;32;20292;-90
2022/01/22 07:53:41;;;;;;;;;;;;;;;3.38;59.36;99958.22;4442662;32;20022;-91
2022/01/22 07:56:06;;;;;;;;;;;;;;;3.59;59.38;99939.34;4442707;32;20051;-89
2022/01/22 07:58:32;;;;;;;;;;;;;;;3.82;59.39;99936.75;4444399;32;20251;-89
2022/01/22 08:00:57;;;;;;;;;;;;;;;3.86;59.40;99933.28;4442398;32;19988;-91
2022/01/22 08:03:25;;;;;;;;;;;;;;;3.44;59.37;99934.19;4442029;32;20608;-92
2022/01/22 08:05:51;;;;;;;;;;;;;;;3.52;59.37;99934.19;4455947;32;20000;-92
2022/01/22 08:08:16;;;;;;;;;;;;;;;3.65;59.39;99933.31;4440737;32;28095;-89
2022/01/22 08:10:41;;;;;;;;;;;;;;;3.68;59.39;99934.16;4441903;32;21987;-90
2022/01/22 08:13:06;;;;;;;;;;;;;;;3.89;59.39;99938.44;4442443;32;19993;-92
2022/01/22 08:15:32;;;;;;;;;;;;;;;4.04;59.40;99936.69;4442084;32;20310;-92
2022/01/22 08:18:00;;;;;;;;;;;;;;;3.75;59.38;99936.72;4456840;32;20016;-92
2022/01/22 08:20:25;;;;;;;;;;;;;;;3.79;59.39;99933.31;4442553;32;20003;-92
2022/01/22 08:22:51;;;;;;;;;;;;;;;3.84;59.40;99939.31;4442338;32;20028;-91
2022/01/22 08:25:16;;;;;;;;;;;;;;;3.77;59.39;99943.59;4455320;32;19997;-94
2022/01/22 08:28:52;;;;;;;;;;;;;;;3.64;59.38;99953.06;4442448;32;20124;-93
2022/01/22 08:30:30;;;;;;;;;;;;;;;3.28;59.36;99953.03;4457026;32;19995;-91
2022/01/22 08:33:08;;;;;;;;;;;;;;;3.35;59.37;99952.22;4454727;32;20001;-91
2022/01/22 08:38:17;;;;;;;;;;;;;;;3.51;59.37;99960.78;4458181;32;19987;-91
2022/01/22 08:40:43;;;;;;;;;;;;;;;3.50;59.37;99983.06;4444547;32;20008;-92
2022/01/22 08:43:09;;;;;;;;;;;;;;;3.47;59.38;99992.50;4444072;32;20009;-91
2022/01/22 08:45:34;;;;;;;;;;;;;;;3.70;59.39;100004.53;4456057;32;21914;-92
2022/01/22 08:47:59;;;;;;;;;;;;;;;3.80;59.39;99999.41;4442716;32;19992;-93
2022/01/22 08:50:24;;;;;;;;;;;;;;;3.77;59.39;100009.66;4443159;32;20318;-91
2022/01/22 08:52:50;;;;;;;;;;;;;;;3.85;59.40;100002.81;4442932;32;20019;-88
2022/01/22 08:55:15;;;;;;;;;;;;;;;4.07;59.40;99998.50;4442331;32;20127;-89
2022/01/22 08:57:40;;;;;;;;;;;;;;;4.15;59.41;99996.75;4442271;32;20508;-92
2022/01/22 09:00:06;;;;;;;;;;;;;;;4.00;59.40;100008.78;4455284;32;20101;-91
2022/01/22 09:02:31;;;;;;;;;;;;;;;3.99;59.40;100001.94;4442248;32;20345;-90
2022/01/22 09:04:56;;;;;;;;;;;;;;;3.96;59.39;100008.81;4455435;32;19999;-93
2022/01/22 09:07:21;;;;;;;;;;;;;;;4.07;59.41;100009.66;4442416;32;19988;-91
2022/01/22 09:09:48;;;;;;;;;;;;;;;4.10;59.41;100011.38;4442394;32;19980;-93
2022/01/22 09:12:13;;;;;;;;;;;;;;;3.68;59.38;100013.97;4442339;32;20042;-90
2022/01/22 09:14:39;;;;;;;;;;;;;;;3.40;59.37;100019.97;4457688;32;20012;-90
2022/01/22 09:17:04;;;;;;;;;;;;;;;3.32;59.37;100021.69;4441933;32;25008;-93
2022/01/22 09:19:34;;;;;;;;;;;;;;;3.47;59.38;100037.13;4443495;32;20003;-91
2022/01/22 09:22:03;;;;;;;;;;;;;;;3.38;59.36;100047.41;4445198;32;20053;-92
2022/01/22 09:24:28;;;;;;;;;;;;;;;3.28;59.36;100056.81;4444635;32;20001;-91
2022/01/22 09:26:55;;;;;;;;;;;;;;;3.31;59.37;100061.09;4444820;32;19972;-93
2022/01/22 09:29:23;;;;;;;;;;;;;;;3.04;59.35;100057.59;4444528;32;19977;-91
2022/01/22 09:31:48;;;;;;;;;;;;;;;3.00;59.34;100061.03;4444344;32;20078;-91
2022/01/22 09:34:13;;;;;;;;;;;;;;;3.02;59.35;100069.59;4456905;32;20372;-92
2022/01/22 09:36:39;;;;;;;;;;;;;;;2.96;59.35;100064.44;4446395;32;19973;-91
2022/01/22 09:39:04;;;;;;;;;;;;;;;2.92;59.34;100085.84;4443454;32;24184;-89
2022/01/22 09:41:29;;;;;;;;;;;;;;;2.81;59.34;100076.34;4444364;32;20028;-89
2022/01/22 09:43:54;;;;;;;;;;;;;;;2.93;59.34;100071.28;4456655;32;19985;-89
2022/01/22 09:46:20;;;;;;;;;;;;;;;3.11;59.35;100081.66;4443438;32;20414;-90
2022/01/22 09:48:46;;;;;;;;;;;;;;;3.14;59.35;100075.66;4443404;32;20014;-87
2022/01/22 09:51:11;;;;;;;;;;;;;;;3.24;59.35;100079.97;4442963;32;20044;-90
2022/01/22 09:53:37;;;;;;;;;;;;;;;3.34;59.37;100071.44;4443383;32;20317;-91
2022/01/22 09:56:02;;;;;;;;;;;;;;;2.99;59.34;100074.72;4457263;32;20355;-91
2022/01/22 09:58:27;;;;;;;;;;;;;;;3.11;59.35;100081.66;4442835;32;20020;-87
2022/01/22 10:00:52;;;;;;;;;;;;;;;3.07;59.34;100075.59;4455361;32;20027;-88
2022/01/22 10:03:19;;;;;;;;;;;;;;;3.00;59.34;100075.59;4442015;32;26089;-90
2022/01/22 10:05:44;;;;;;;;;;;;;;;3.08;59.35;100077.34;4456119;32;19984;-90
2022/01/22 10:08:17;;;;;;;;;;;;;;;3.15;59.35;100078.22;4456699;32;20023;-87
2022/01/22 10:10:44;;;;;;;;;;;;;;;3.43;59.37;100080.87;4443091;32;20372;-86
2022/01/22 10:13:09;;;;;;;;;;;;;;;3.26;59.36;100078.25;4455759;32;20015;-89
2022/01/22 10:15:35;;;;;;;;;;;;;;;3.33;59.37;100074.84;4445718;32;19985;-92
2022/01/22 10:18:00;;;;;;;;;;;;;;;3.44;59.37;100075.72;4444584;32;19992;-91
2022/01/22 10:20:27;;;;;;;;;;;;;;;3.58;59.38;100086.91;4443990;32;20602;-90
2022/01/22 10:23:20;;;;;;;;;;;;;;;3.58;59.37;100086.06;4445010;32;20001;-92
2022/01/22 10:25:51;;;;;;;;;;;;;;;3.82;59.38;100080.06;4458635;32;20369;-91
2022/01/22 10:28:22;;;;;;;;;;;;;;;3.73;59.38;100090.34;4446678;32;20003;-94
2022/01/22 10:30:50;;;;;;;;;;;;;;;3.75;59.38;100092.06;4445741;32;19961;-92
2022/01/22 10:35:47;;;;;;;;;;;;;;;3.87;59.39;100099.81;4459300;32;19978;-94
2022/01/22 10:38:12;;;;;;;;;;;;;;;3.88;59.39;100090.38;4445094;32;19989;-93
2022/01/22 10:40:38;;;;;;;;;;;;;;;4.08;59.41;100093.81;4445097;32;20019;-93
2022/01/22 10:43:20;;;;;;;;;;;;;;;4.16;59.41;100096.38;4445101;32;20020;-94
2022/01/22 10:46:00;;;;;;;;;;;;;;;4.24;59.42;100100.66;4445969;32;19977;-93
2022/01/22 10:48:25;;;;;;;;;;;;;;;4.21;59.42;100094.66;4445499;32;19984;-94
2022/01/22 10:51:00;;;;;;;;;;;;;;;4.12;59.40;100100.69;4445433;32;20029;-94
2022/01/22 10:53:44;;;;;;;;;;;;;;;4.17;59.41;100103.25;4460200;32;20608;-92
2022/01/22 10:56:10;;;;;;;;;;;;;;;4.38;59.42;100105.81;4458270;32;19981;-93
2022/01/22 10:58:36;;;;;;;;;;;;;;;4.42;59.42;100101.50;4458403;32;19976;-92
2022/01/22 11:01:03;;;;;;;;;;;;;;;4.17;59.41;100100.66;4445418;32;20026;-94
2022/01/22 11:03:28;;;;;;;;;;;;;;;4.12;59.40;100115.28;4445694;32;19993;-96
2022/01/22 11:05:54;;;;;;;;;;;;;;;4.22;59.42;100115.25;4446129;32;19991;-93
2022/01/22 11:08:19;;;;;;;;;;;;;;;4.34;59.42;100122.13;4446102;32;19977;-94
2022/01/22 11:10:45;;;;;;;;;;;;;;;4.32;59.41;100127.28;4457849;32;24007;-94
2022/01/22 11:13:11;;;;;;;;;;;;;;;4.20;59.42;100135.00;4459000;32;19996;-94
2022/01/22 11:15:36;;;;;;;;;;;;;;;4.41;59.42;100129.00;4444941;32;19985;-95
2022/01/22 11:18:01;;;;;;;;;;;;;;;4.15;59.41;100131.59;4458552;32;20037;-93
2022/01/22 11:20:27;;;;;;;;;;;;;;;4.11;59.40;100127.28;4460253;32;19984;-93
2022/01/22 11:22:52;;;;;;;;;;;;;;;4.16;59.41;100140.16;4458897;32;19996;-94
2022/01/22 11:25:17;;;;;;;;;;;;;;;4.34;59.42;100136.75;4445966;32;19980;-94
2022/01/22 11:27:43;;;;;;;;;;;;;;;4.35;59.43;100144.47;4447411;32;20317;-96
2022/01/22 11:30:09;;;;;;;;;;;;;;;4.06;59.41;100141.91;4462066;32;19985;-95
2022/01/22 11:32:52;;;;;;;;;;;;;;;4.11;59.41;100147.91;4446603;32;20000;-92
2022/01/22 11:35:23;;;;;;;;;;;;;;;4.08;59.40;100154.78;4453312;32;19959;-94
2022/01/22 11:37:49;;;;;;;;;;;;;;;4.34;59.41;100159.94;4460525;32;19987;-95
2022/01/22 11:40:21;;;;;;;;;;;;;;;4.45;59.43;100153.91;4448798;32;19968;-93
2022/01/22 11:42:55;;;;;;;;;;;;;;;4.59;59.44;100156.47;4448600;32;19979;-96
2022/01/22 11:45:42;;;;;;;;;;;;;;;4.77;59.44;100158.16;4458776;32;19972;-94
2022/01/22 11:48:11;;;;;;;;;;;;;;;4.59;59.44;100154.75;4456491;32;19973;-92
2022/01/22 11:50:36;;;;;;;;;;;;;;;4.18;59.41;100157.34;4444843;32;19964;-91
2022/01/22 11:53:20;;;;;;;;;;;;;;;4.09;59.41;100156.50;4443723;32;21042;-88
2022/01/22 11:56:05;;;;;;;;;;;;;;;4.10;59.40;100153.91;4466896;32;19981;-85
2022/01/22 11:58:30;;;;;;;;;;;;;;;4.31;59.41;100153.94;4468189;32;19981;-89
2022/01/22 12:00:55;;;;;;;;;;;;;;;4.08;59.41;100153.06;4454487;32;26265;-86
2022/01/22 12:03:21;;;;;;;;;;;;;;;4.25;59.41;100161.63;4456243;32;32233;-85
2022/01/22 12:05:49;;;;;;;;;;;;;;;4.32;59.42;100167.66;4426453;32;20008;-86
2022/01/22 12:08:15;;;;;;;;;;;;;;;4.17;59.41;100177.97;4452860;32;19985;-87
2022/01/22 12:10:42;;;;;;;;;;;;;;;4.05;59.41;100171.09;4427525;32;20393;-89
2022/01/22 12:16:04;;;;;;;;;;;;;;;3.72;59.38;100174.44;4453104;32;20022;-88
2022/01/22 12:18:30;;;;;;;;;;;;;;;3.68;59.38;100176.16;4438166;32;23698;-87
2022/01/22 12:23:30;;;;;;;;;;;;;;;3.94;59.40;100173.63;4438727;32;20365;-87
2022/01/22 12:25:56;;;;;;;;;;;;;;;4.03;59.40;100177.09;4438325;32;19982;-88
2022/01/22 12:28:34;;;;;;;;;;;;;;;4.08;59.41;100160.78;4438853;32;19981;-88
2022/01/22 12:31:06;;;;;;;;;;;;;;;3.85;59.40;100173.63;4454466;32;20020;-88
2022/01/22 12:33:34;;;;;;;;;;;;;;;3.52;59.37;100174.38;4438737;32;20053;-87
2022/01/22 12:36:03;;;;;;;;;;;;;;;3.58;59.38;100166.72;4453128;32;20025;-88
2022/01/22 12:38:49;;;;;;;;;;;;;;;3.55;59.38;100163.25;4452720;32;20269;-87
2022/01/22 12:46:48;;;;;;;;;;;;;;;3.47;59.38;100168.38;4431928;32;20891;-87
2022/01/22 12:49:13;;;;;;;;;;;;;;;3.35;59.36;100182.06;4438235;32;19987;-88
2022/01/22 12:51:39;;;;;;;;;;;;;;;3.44;59.36;100183.81;4439134;32;20027;-88
2022/01/22 12:54:04;;;;;;;;;;;;;;;3.44;59.37;100186.37;4440316;32;19997;-88
2022/01/22 12:59:05;;;;;;;;;;;;;;;3.67;59.37;100189.87;4459361;32;19977;-86
2022/01/22 13:01:32;;;;;;;;;;;;;;;3.76;59.38;100203.63;4473273;32;20234;-86
2022/01/22 13:03:57;;;;;;;;;;;;;;;3.83;59.38;100201.09;4458918;32;20006;-87
2022/01/22 13:06:24;;;;;;;;;;;;;;;3.87;59.39;100213.13;4458980;32;19977;-88
2022/01/22 13:08:49;;;;;;;;;;;;;;;3.93;59.39;100210.56;4459051;32;20014;-89
2022/01/22 13:11:18;;;;;;;;;;;;;;;3.75;59.38;100215.66;4446730;32;19992;-87
2022/01/22 13:13:47;;;;;;;;;;;;;;;3.75;59.38;100209.63;4460270;32;20040;-88
2022/01/22 13:16:16;;;;;;;;;;;;;;;3.67;59.38;100209.63;4447027;32;19989;-88
2022/01/22 13:18:56;;;;;;;;;;;;;;;3.61;59.38;100213.03;4461545;32;19976;-87
2022/01/22 13:21:21;;;;;;;;;;;;;;;3.42;59.37;100215.53;4448438;32;20065;-88
2022/01/22 13:23:57;;;;;;;;;;;;;;;3.43;59.36;100217.25;4468149;32;20246;-88
2022/01/22 13:26:36;;;;;;;;;;;;;;;3.40;59.37;100212.97;4478553;32;20053;-87
2022/01/22 13:29:13;;;;;;;;;;;;;;;3.43;59.37;100227.53;4473159;32;19991;-89
2022/01/22 13:31:38;;;;;;;;;;;;;;;3.45;59.36;100228.41;4458634;32;20328;-89
2022/01/22 13:34:16;;;;;;;;;;;;;;;3.48;59.37;100234.44;4473049;32;19969;-87
2022/01/22 13:37:38;;;;;;;;;;;;;;;3.45;59.37;100234.41;4458468;32;20001;-88
2022/01/22 13:40:02;;;;;;;;;;;;;;;3.49;59.37;100233.56;4461284;32;19977;-87
2022/01/22 13:47:40;;;;;;;;;;;;;;;3.65;59.38;100255.97;4460523;32;20530;-87
2022/01/22 13:48:08;;;;;;;;;;;;;;;3.76;59.39;100258.56;4464294;32;19984;-88
2022/01/22 13:50:33;;;;;;;;;;;;;;;3.79;59.39;100258.59;4458462;32;19985;-89
2022/01/22 13:52:58;;;;;;;;;;;;;;;3.84;59.39;100267.19;4458047;32;20004;-89
2022/01/22 13:55:24;;;;;;;;;;;;;;;3.85;59.39;100263.75;4458205;32;19981;-89
2022/01/22 13:57:51;;;;;;;;;;;;;;;3.91;59.40;100276.66;4458320;32;20313;-89
2022/01/22 14:00:17;;;;;;;;;;;;;;;3.96;59.39;100274.09;4458349;32;20357;-89
2022/01/22 14:03:27;;;;;;;;;;;;;;;3.72;59.39;100289.44;4458445;32;19996;-89
2022/01/22 14:05:34;;;;;;;;;;;;;;;3.78;59.39;100286.88;4456564;32;19992;-88
2022/01/22 14:07:59;;;;;;;;;;;;;;;3.73;59.39;100291.16;4470445;32;20673;-89
2022/01/22 14:10:26;;;;;;;;;;;;;;;3.90;59.40;100295.53;4455231;32;19985;-88
2022/01/22 14:12:54;;;;;;;;;;;;;;;3.85;59.40;100286.06;4455284;32;20011;-88
2022/01/22 14:15:26;;;;;;;;;;;;;;;3.84;59.40;100297.22;4442719;32;20447;-90
2022/01/22 14:18:07;;;;;;;;;;;;;;;3.66;59.38;100304.00;4469469;32;19994;-88
2022/01/22 14:20:33;;;;;;;;;;;;;;;3.55;59.37;100313.41;4454088;32;19976;-89
2022/01/22 14:23:04;;;;;;;;;;;;;;;3.79;59.39;100335.84;4454803;32;20019;-89
2022/01/22 14:25:29;;;;;;;;;;;;;;;3.61;59.38;100325.44;4455495;32;20026;-89
2022/01/22 14:27:58;;;;;;;;;;;;;;;3.55;59.38;100343.41;4456006;32;19981;-88
2022/01/22 14:30:33;;;;;;;;;;;;;;;3.69;59.39;100347.78;4444025;32;20497;-88
2022/01/22 14:32:59;;;;;;;;;;;;;;;3.73;59.39;100356.38;4449692;32;19984;-89
2022/01/22 14:35:24;;;;;;;;;;;;;;;3.66;59.38;100370.09;4461929;32;19985;-88
2022/01/22 14:37:53;;;;;;;;;;;;;;;3.68;59.39;100379.53;4457037;32;19977;-89
2022/01/22 14:45:59;;;;;;;;;;;;;;;3.69;59.39;100395.84;4468866;32;20052;-88
2022/01/22 14:48:25;;;;;;;;;;;;;;;3.66;59.38;100398.41;4454790;32;19981;-88
2022/01/22 14:50:50;;;;;;;;;;;;;;;3.70;59.39;100407.88;4454825;32;20305;-88
2022/01/22 14:53:16;;;;;;;;;;;;;;;3.89;59.39;100412.28;4455043;32;19985;-89